CheckWX is a tool to help pilots better visualize weather data.  It is not intended as a substitute for an official pre-flight weather briefing.

21:52:20 UTC

MMPG TAF
Piedras Negras International Airport
Mexico
TAF MMPG 201726Z 2018/2118 06005KT 4SM BR BKN010 OVC015 FM202000 09008KT 5SM HZ BKN015 OVC040 FM210100 12005KT 6SM HZ BKN020 OVC060 BECMG 2115/2116 12008KT

Mar-20@
18:00 UTC

Mar-20 @ 18:00 UTC

Mar-20@
20:00 UTC

Mar-20 @ 20:00 UTC

TAF MMPG 201726Z 2018/2118 06005KT 4SM BR BKN010 OVC015

Expired

Wind
  • 060° at 5 KTS
Conditions
Mist
Cloud Levels
  • Broken at 1,000' AGL
  • Overcast at 1,500' AGL

Mar-20@
20:00 UTC

Mar-20 @ 20:00 UTC

Mar-21@
01:00 UTC

Mar-21 @ 01:00 UTC

FM202000 09008KT 5SM HZ BKN015 OVC040

From

From Standard forecast or significant change

Wind
  • 090° at 8 KTS
Conditions
Haze
Cloud Levels
  • Broken at 1,500' AGL
  • Overcast at 4,000' AGL

Mar-21@
01:00 UTC

Mar-21 @ 01:00 UTC

Mar-21@
15:00 UTC

Mar-21 @ 15:00 UTC

FM210100 12005KT 6SM HZ BKN020 OVC060

From

From Standard forecast or significant change

Wind
  • 120° at 5 KTS
Conditions
Haze
Cloud Levels
  • Broken at 2,000' AGL
  • Overcast at 6,000' AGL

Mar-21@
15:00 UTC

Mar-21 @ 15:00 UTC

Mar-21@
18:00 UTC

Mar-21 @ 18:00 UTC

BECMG 2115/2116 12008KT

Becoming

Becoming Conditions expected by Thu, Mar 21, 2019 @ 16:00 UTC

Wind
  • 120° at 8 KTS
Conditions
Haze
Cloud Levels
  • Broken at 2,000' AGL
  • Overcast at 6,000' AGL